Time;durP1;ratioP1;P1;durP2;ratioP2;P2;SDS_P1;SDS_P2;PMS_P1;PMS_P2;Temp;Humidity;BMP_temperature;BMP_pressure;BME280_temperature;BME280_humidity;BME280_pressure;Samples;Min_cycle;Max_cycle;Signal;HPM_P1;HPM_P2
2023/07/26 00:01:04;;;;;;;;;;;;;;;25.47;67.83;94211.34;5113574;28;995;-58
2023/07/26 00:03:30;;;;;;;;;;;;;;;25.39;68.14;94204.53;5115716;28;1036;-58
2023/07/26 00:05:56;;;;;;;;;;;;;;;25.07;70.63;94211.09;5117427;28;1977;-58
2023/07/26 00:08:22;;;;;;;;;;;;;;;24.96;70.76;94217.66;5122605;27;3032;-58
2023/07/26 00:10:48;;;;;;;;;;;;;;;24.68;72.03;94208.94;5138303;27;1251;-58
2023/07/26 00:13:17;;;;;;;;;;;;;;;24.46;72.26;94206.41;5137856;27;1263;-58
2023/07/26 00:15:43;;;;;;;;;;;;;;;24.33;73.27;94198.75;5138020;27;993;-57
2023/07/26 00:18:09;;;;;;;;;;;;;;;24.35;72.51;94194.63;5137736;27;1087;-58
2023/07/26 00:20:35;;;;;;;;;;;;;;;24.43;73.81;94196.00;5137734;27;1090;-57
2023/07/26 00:23:02;;;;;;;;;;;;;;;24.38;73.50;94200.66;5138053;27;976;-57
2023/07/26 00:25:28;;;;;;;;;;;;;;;24.14;74.21;94195.69;5137512;27;1909;-57
2023/07/26 00:27:54;;;;;;;;;;;;;;;24.03;74.94;94200.28;5137617;27;1032;-57
2023/07/26 00:30:20;;;;;;;;;;;;;;;23.79;75.65;94197.22;5137779;27;1196;-57
2023/07/26 00:32:46;;;;;;;;;;;;;;;23.80;76.43;94192.59;5137509;27;1194;-57
2023/07/26 00:35:19;;;;;;;;;;;;;;;23.95;75.51;94185.25;5127208;27;2842;-57
2023/07/26 00:37:45;;;;;;;;;;;;;;;23.89;75.72;94189.06;5117117;28;965;-57
2023/07/26 00:40:11;;;;;;;;;;;;;;;24.02;75.75;94185.03;5117001;28;985;-57
2023/07/26 00:42:37;;;;;;;;;;;;;;;24.05;74.83;94189.13;5116953;28;1043;-57
2023/07/26 00:45:03;;;;;;;;;;;;;;;24.05;75.27;94180.91;5117000;28;1913;-57
2023/07/26 00:47:29;;;;;;;;;;;;;;;24.23;73.87;94177.69;5116763;28;1011;-57
2023/07/26 00:49:55;;;;;;;;;;;;;;;24.15;74.08;94180.97;5116698;28;965;-57
2023/07/26 00:52:23;;;;;;;;;;;;;;;24.15;73.85;94167.31;5116503;28;1044;-57
2023/07/26 00:54:49;;;;;;;;;;;;;;;24.21;73.55;94179.03;5116633;28;1569;-58
2023/07/26 00:57:15;;;;;;;;;;;;;;;24.29;73.51;94173.88;5116642;28;1039;-58
2023/07/26 00:59:41;;;;;;;;;;;;;;;24.07;75.49;94181.47;5116592;28;974;-57
2023/07/26 01:02:07;;;;;;;;;;;;;;;23.56;77.13;94177.47;5116538;28;1036;-56
2023/07/26 01:04:33;;;;;;;;;;;;;;;23.39;77.85;94168.63;5116210;28;1988;-57
2023/07/26 01:07:14;;;;;;;;;;;;;;;23.41;77.41;94171.94;5119282;27;2852;-57
2023/07/26 01:09:51;;;;;;;;;;;;;;;23.32;77.62;94170.78;5136908;27;987;-57
2023/07/26 01:12:22;;;;;;;;;;;;;;;23.35;78.19;94162.06;5136746;27;1088;-58
2023/07/26 01:14:58;;;;;;;;;;;;;;;23.39;77.26;94174.06;5127128;27;2513;-57
2023/07/26 01:17:24;;;;;;;;;;;;;;;23.36;77.52;94174.63;5116325;28;1052;-57
2023/07/26 01:19:50;;;;;;;;;;;;;;;23.28;78.01;94175.94;5116013;28;1040;-57
2023/07/26 01:22:16;;;;;;;;;;;;;;;23.09;78.41;94167.38;5116254;28;1040;-57
2023/07/26 01:24:42;;;;;;;;;;;;;;;23.28;77.54;94175.13;5115876;28;1909;-57
2023/07/26 01:27:08;;;;;;;;;;;;;;;23.27;77.69;94178.94;5115922;28;1003;-57
2023/07/26 01:29:34;;;;;;;;;;;;;;;23.25;77.41;94181.09;5114984;27;2901;-57
2023/07/26 01:32:00;;;;;;;;;;;;;;;23.06;78.67;94176.06;5116086;28;1036;-57
2023/07/26 01:34:26;;;;;;;;;;;;;;;22.94;79.44;94172.72;5116035;28;1031;-57
2023/07/26 01:36:52;;;;;;;;;;;;;;;22.84;79.63;94176.19;5116222;28;966;-57
2023/07/26 01:39:19;;;;;;;;;;;;;;;22.91;79.61;94167.78;5115909;28;946;-57
2023/07/26 01:41:45;;;;;;;;;;;;;;;22.95;79.33;94158.78;5115732;28;1083;-57
2023/07/26 01:44:12;;;;;;;;;;;;;;;22.90;80.19;94161.50;5115783;28;1987;-57
2023/07/26 01:46:38;;;;;;;;;;;;;;;22.88;80.32;94157.38;5115708;28;1028;-57
2023/07/26 01:49:04;;;;;;;;;;;;;;;22.79;80.42;94160.59;5115901;28;1032;-57
2023/07/26 01:51:30;;;;;;;;;;;;;;;22.75;80.74;94162.22;5115843;28;1025;-57
2023/07/26 01:53:55;;;;;;;;;;;;;;;22.68;80.62;94156.16;5115540;28;1071;-56
2023/07/26 01:56:22;;;;;;;;;;;;;;;22.41;82.27;94151.59;5115568;28;1032;-57
2023/07/26 01:58:48;;;;;;;;;;;;;;;22.57;81.51;94159.88;5115431;28;1099;-56
2023/07/26 02:01:14;;;;;;;;;;;;;;;22.96;79.77;94156.91;5115343;28;1064;-57
2023/07/26 02:03:40;;;;;;;;;;;;;;;22.95;80.03;94161.53;5115635;28;1987;-57
2023/07/26 02:06:06;;;;;;;;;;;;;;;22.81;80.88;94158.44;5115547;28;953;-57
2023/07/26 02:08:31;;;;;;;;;;;;;;;22.53;81.60;94156.03;5115503;28;972;-56
2023/07/26 02:10:57;;;;;;;;;;;;;;;22.89;79.92;94150.84;5115329;28;964;-57
2023/07/26 02:13:23;;;;;;;;;;;;;;;23.22;78.34;94143.44;5115056;28;1103;-57
2023/07/26 02:15:49;;;;;;;;;;;;;;;23.11;79.27;94137.13;5115115;28;1051;-56
2023/07/26 02:18:15;;;;;;;;;;;;;;;22.93;79.56;94135.63;5114992;28;1028;-57
2023/07/26 02:20:41;;;;;;;;;;;;;;;22.75;79.97;94134.97;5115366;28;1005;-57
2023/07/26 02:23:07;;;;;;;;;;;;;;;22.80;79.76;94134.16;5135555;27;1237;-57
2023/07/26 02:25:33;;;;;;;;;;;;;;;22.94;78.71;94131.81;5135369;27;1906;-56
2023/07/26 02:27:59;;;;;;;;;;;;;;;22.92;79.45;94144.91;5134038;27;2921;-56
2023/07/26 02:30:25;;;;;;;;;;;;;;;22.90;79.55;94152.50;5135242;27;1114;-57
2023/07/26 02:32:51;;;;;;;;;;;;;;;22.53;80.30;94164.22;5135567;27;1031;-56
2023/07/26 02:35:17;;;;;;;;;;;;;;;22.51;80.35;94156.28;5135416;27;956;-56
2023/07/26 02:37:43;;;;;;;;;;;;;;;22.29;80.78;94161.00;5135596;27;973;-56
2023/07/26 02:40:09;;;;;;;;;;;;;;;22.46;80.20;94174.50;5135341;27;1146;-57
2023/07/26 02:42:35;;;;;;;;;;;;;;;22.37;80.88;94177.69;5135471;27;1065;-57
2023/07/26 02:45:01;;;;;;;;;;;;;;;22.40;80.91;94171.75;5133534;27;2516;-56
2023/07/26 02:47:31;;;;;;;;;;;;;;;22.39;79.99;94178.25;5135308;27;1060;-57
2023/07/26 02:50:00;;;;;;;;;;;;;;;22.36;80.33;94169.78;5135592;27;957;-57
2023/07/26 02:52:26;;;;;;;;;;;;;;;22.50;79.20;94179.19;5134975;27;1082;-57
2023/07/26 02:54:52;;;;;;;;;;;;;;;22.57;78.73;94184.41;5135121;27;993;-57
2023/07/26 02:57:18;;;;;;;;;;;;;;;22.47;79.25;94167.97;5134854;27;1029;-57
2023/07/26 02:59:44;;;;;;;;;;;;;;;22.27;80.06;94177.63;5134805;27;1022;-57
2023/07/26 03:02:10;;;;;;;;;;;;;;;22.25;81.08;94173.47;5134742;27;1047;-57
2023/07/26 03:04:35;;;;;;;;;;;;;;;22.14;81.17;94172.53;5134881;27;1984;-57
2023/07/26 03:07:01;;;;;;;;;;;;;;;22.16;81.28;94170.41;5134827;27;1033;-56
2023/07/26 03:09:27;;;;;;;;;;;;;;;22.01;80.60;94171.88;5134614;27;1132;-56
2023/07/26 03:11:53;;;;;;;;;;;;;;;22.05;79.92;94168.66;5118004;27;2568;-56
2023/07/26 03:14:19;;;;;;;;;;;;;;;22.11;80.20;94167.63;5113866;28;1076;-57
2023/07/26 03:16:45;;;;;;;;;;;;;;;22.23;79.26;94180.00;5114341;28;1029;-57
2023/07/26 03:19:11;;;;;;;;;;;;;;;22.27;80.06;94177.63;5114150;28;1057;-57
2023/07/26 03:21:37;;;;;;;;;;;;;;;22.16;80.33;94175.84;5114246;28;999;-57
2023/07/26 03:24:03;;;;;;;;;;;;;;;22.14;79.98;94181.53;5113947;28;1906;-57
2023/07/26 03:26:29;;;;;;;;;;;;;;;22.07;80.06;94180.91;5114134;28;968;-56
2023/07/26 03:28:55;;;;;;;;;;;;;;;21.87;81.03;94177.97;5121974;27;2865;-57
2023/07/26 03:31:21;;;;;;;;;;;;;;;22.11;80.27;94182.03;5134605;27;1063;-57
2023/07/26 03:33:47;;;;;;;;;;;;;;;22.08;80.94;94179.00;5134364;27;1076;-56
2023/07/26 03:36:13;;;;;;;;;;;;;;;21.95;82.01;94185.66;5134572;28;1067;-56
2023/07/26 03:38:39;;;;;;;;;;;;;;;21.80;82.30;94189.88;5133901;27;1008;-57
2023/07/26 03:41:05;;;;;;;;;;;;;;;21.87;81.33;94189.66;5134507;28;952;-57
2023/07/26 03:43:31;;;;;;;;;;;;;;;21.96;81.10;94187.31;5134227;28;1051;-56
2023/07/26 03:45:57;;;;;;;;;;;;;;;22.06;80.68;94186.59;5134523;28;1997;-56
2023/07/26 03:48:23;;;;;;;;;;;;;;;22.02;81.21;94186.28;5134135;28;1090;-56
2023/07/26 03:50:49;;;;;;;;;;;;;;;21.94;82.09;94187.56;5134148;28;1086;-56
2023/07/26 03:53:15;;;;;;;;;;;;;;;22.17;81.14;94182.91;5134084;28;1265;-56
2023/07/26 03:55:41;;;;;;;;;;;;;;;22.06;81.55;94184.69;5134506;28;955;-58
2023/07/26 03:58:07;;;;;;;;;;;;;;;22.03;81.82;94190.66;5134289;28;998;-57
2023/07/26 04:00:33;;;;;;;;;;;;;;;22.09;81.92;94188.81;5134115;28;1064;-57
2023/07/26 04:02:58;;;;;;;;;;;;;;;22.22;81.28;94191.13;5132802;28;3110;-57
2023/07/26 04:05:24;;;;;;;;;;;;;;;22.35;81.75;94185.31;5134109;28;2022;-57
2023/07/26 04:07:50;;;;;;;;;;;;;;;22.34;81.88;94194.53;5134002;28;975;-58
2023/07/26 04:10:16;;;;;;;;;;;;;;;22.33;82.22;94198.34;5133853;28;1863;-57
2023/07/26 04:12:42;;;;;;;;;;;;;;;22.49;81.33;94206.66;5133733;28;1116;-57
2023/07/26 04:15:08;;;;;;;;;;;;;;;22.63;82.05;94215.22;5133979;28;1043;-57
2023/07/26 04:17:34;;;;;;;;;;;;;;;22.79;80.29;94217.00;5134240;28;1063;-57
2023/07/26 04:20:00;;;;;;;;;;;;;;;22.80;80.55;94211.31;5134076;28;1037;-57
2023/07/26 04:22:26;;;;;;;;;;;;;;;22.99;80.17;94224.50;5133952;28;1041;-57
2023/07/26 04:24:52;;;;;;;;;;;;;;;22.90;81.29;94216.00;5134111;28;1917;-57
2023/07/26 04:27:18;;;;;;;;;;;;;;;22.91;81.11;94220.38;5133715;28;1087;-57
2023/07/26 04:29:44;;;;;;;;;;;;;;;23.10;80.64;94223.53;5134083;28;1213;-57
2023/07/26 04:32:10;;;;;;;;;;;;;;;23.29;80.64;94218.47;5133966;28;1003;-57
2023/07/26 04:34:36;;;;;;;;;;;;;;;23.48;79.67;94213.41;5133836;28;1000;-57
2023/07/26 04:37:02;;;;;;;;;;;;;;;23.38;80.89;94203.25;5133736;28;1288;-58
2023/07/26 04:39:28;;;;;;;;;;;;;;;23.70;78.88;94209.72;5133702;28;979;-58
2023/07/26 04:41:54;;;;;;;;;;;;;;;23.99;79.13;94193.75;5133859;28;1023;-58
2023/07/26 04:44:20;;;;;;;;;;;;;;;24.04;80.33;94196.50;5133620;28;1910;-58
2023/07/26 04:46:46;;;;;;;;;;;;;;;24.17;78.92;94197.91;5133947;28;1021;-57
2023/07/26 04:49:12;;;;;;;;;;;;;;;24.16;79.50;94193.50;5133813;27;952;-57
2023/07/26 04:51:38;;;;;;;;;;;;;;;24.21;79.34;94193.53;5137421;27;1054;-57
2023/07/26 04:54:05;;;;;;;;;;;;;;;24.29;80.63;94194.91;5137277;27;1007;-57
2023/07/26 04:56:31;;;;;;;;;;;;;;;24.47;78.63;94202.59;5137048;27;928;-57
2023/07/26 04:58:57;;;;;;;;;;;;;;;24.63;76.74;94199.91;5137499;27;1028;-57
2023/07/26 05:01:23;;;;;;;;;;;;;;;24.74;76.92;94207.84;5137342;27;1058;-57
2023/07/26 05:03:49;;;;;;;;;;;;;;;24.94;75.08;94208.91;5137408;27;1913;-57
2023/07/26 05:06:15;;;;;;;;;;;;;;;25.15;74.71;94212.47;5137252;27;999;-57
2023/07/26 05:08:41;;;;;;;;;;;;;;;25.32;74.69;94206.72;5137140;27;959;-57
2023/07/26 05:11:07;;;;;;;;;;;;;;;25.23;75.21;94209.22;5136995;27;979;-57
2023/07/26 05:13:33;;;;;;;;;;;;;;;25.20;74.68;94208.91;5131729;27;2418;-57
2023/07/26 05:15:59;;;;;;;;;;;;;;;25.37;75.82;94209.47;5117427;27;2732;-56
2023/07/26 05:18:25;;;;;;;;;;;;;;;25.34;74.23;94218.22;5116446;28;1045;-57
2023/07/26 05:20:51;;;;;;;;;;;;;;;25.05;74.47;94216.03;5116280;28;1091;-57
2023/07/26 05:23:17;;;;;;;;;;;;;;;24.96;73.47;94214.13;5116443;28;1055;-57
2023/07/26 05:25:43;;;;;;;;;;;;;;;25.06;71.30;94214.09;5116404;28;1910;-56
2023/07/26 05:28:09;;;;;;;;;;;;;;;25.31;70.75;94216.84;5116648;27;1213;-57
2023/07/26 05:30:38;;;;;;;;;;;;;;;25.61;69.46;94217.91;5136843;27;1056;-57
2023/07/26 05:33:05;;;;;;;;;;;;;;;25.76;70.43;94217.00;5136753;27;962;-57
2023/07/26 05:35:31;;;;;;;;;;;;;;;26.00;70.90;94211.75;5136799;27;1043;-57
2023/07/26 05:37:57;;;;;;;;;;;;;;;26.08;70.56;94211.16;5136528;27;1602;-57
2023/07/26 05:40:23;;;;;;;;;;;;;;;26.30;68.86;94213.50;5136317;27;1059;-56
2023/07/26 05:42:49;;;;;;;;;;;;;;;26.40;68.45;94209.09;5136392;27;1045;-57
2023/07/26 05:45:15;;;;;;;;;;;;;;;26.37;69.15;94202.25;5136508;27;1905;-57
2023/07/26 05:47:41;;;;;;;;;;;;;;;26.57;66.97;94205.97;5136320;27;943;-56
2023/07/26 05:50:10;;;;;;;;;;;;;;;26.67;66.25;94211.38;5136447;27;1027;-57
2023/07/26 05:52:36;;;;;;;;;;;;;;;26.96;64.68;94200.50;5136258;27;957;-57
2023/07/26 05:55:02;;;;;;;;;;;;;;;27.14;62.34;94209.13;5136385;27;963;-57
2023/07/26 05:57:28;;;;;;;;;;;;;;;27.35;62.65;94209.75;5136254;27;1032;-57
2023/07/26 05:59:54;;;;;;;;;;;;;;;27.51;61.90;94191.19;5135877;27;1047;-56
2023/07/26 06:02:20;;;;;;;;;;;;;;;27.68;62.12;94188.00;5117954;27;2987;-57
2023/07/26 06:04:46;;;;;;;;;;;;;;;27.89;62.25;94194.94;5115430;28;1905;-56
2023/07/26 06:07:13;;;;;;;;;;;;;;;28.04;62.22;94193.94;5115593;28;1267;-57
2023/07/26 06:09:39;;;;;;;;;;;;;;;28.30;62.71;94185.34;5115339;28;1008;-56
2023/07/26 06:12:05;;;;;;;;;;;;;;;28.56;61.88;94185.84;5115216;28;1087;-56
2023/07/26 06:14:31;;;;;;;;;;;;;;;28.77;61.09;94180.84;5115013;28;1235;-56
2023/07/26 06:16:57;;;;;;;;;;;;;;;28.91;60.92;94187.22;5115135;28;1036;-56
2023/07/26 06:19:24;;;;;;;;;;;;;;;28.90;61.36;94188.31;5115220;28;1044;-56
2023/07/26 06:21:50;;;;;;;;;;;;;;;29.11;60.65;94185.22;5115095;28;1036;-56
2023/07/26 06:24:16;;;;;;;;;;;;;;;29.07;60.95;94175.94;5114857;28;1914;-57
2023/07/26 06:26:42;;;;;;;;;;;;;;;29.23;60.84;94179.28;5115276;28;1045;-57
2023/07/26 06:29:08;;;;;;;;;;;;;;;29.45;57.05;94171.16;5123688;27;1201;-57
2023/07/26 06:31:34;;;;;;;;;;;;;;;29.87;52.54;94165.72;5123543;27;2904;-56
2023/07/26 06:34:00;;;;;;;;;;;;;;;30.24;46.93;94170.16;5114967;28;1040;-57
2023/07/26 06:36:26;;;;;;;;;;;;;;;30.57;46.42;94158.97;5114717;28;978;-56
2023/07/26 06:38:52;;;;;;;;;;;;;;;30.85;44.47;94159.69;5114601;28;1088;-56
2023/07/26 06:41:18;;;;;;;;;;;;;;;31.10;41.67;94161.03;5114421;28;1032;-57
2023/07/26 06:43:44;;;;;;;;;;;;;;;31.27;43.06;94159.50;5114497;28;1188;-56
2023/07/26 06:46:09;;;;;;;;;;;;;;;31.39;44.54;94164.44;5114710;28;1922;-56
2023/07/26 06:48:35;;;;;;;;;;;;;;;31.51;42.28;94150.88;5114622;28;1297;-56
2023/07/26 06:51:02;;;;;;;;;;;;;;;31.63;40.76;94148.34;5096350;28;1104;-55
2023/07/26 06:53:28;;;;;;;;;;;;;;;31.80;41.31;94152.31;5114436;28;1075;-55
2023/07/26 06:55:57;;;;;;;;;;;;;;;31.88;42.30;94146.81;5114212;28;1024;-55
2023/07/26 06:58:23;;;;;;;;;;;;;;;32.04;41.74;94152.75;5114393;28;973;-56
2023/07/26 07:00:49;;;;;;;;;;;;;;;32.16;40.47;94149.38;5114439;28;1080;-56
2023/07/26 07:03:16;;;;;;;;;;;;;;;32.24;40.67;94136.69;5114269;28;933;-56
2023/07/26 07:05:42;;;;;;;;;;;;;;;32.34;41.18;94141.91;5114064;28;1913;-56
2023/07/26 07:08:08;;;;;;;;;;;;;;;32.33;40.57;94137.53;5096429;28;994;-57
2023/07/26 07:10:34;;;;;;;;;;;;;;;32.44;40.50;94135.22;5114289;28;1011;-57
2023/07/26 07:13:00;;;;;;;;;;;;;;;32.50;40.02;94139.50;5113095;28;1099;-56
2023/07/26 07:15:26;;;;;;;;;;;;;;;32.59;39.25;94148.63;5115585;27;2909;-57
2023/07/26 07:17:52;;;;;;;;;;;;;;;32.54;38.40;94134.13;5115047;27;2845;-57
2023/07/26 07:20:18;;;;;;;;;;;;;;;32.65;39.32;94140.97;5153042;27;2992;-58
2023/07/26 07:22:44;;;;;;;;;;;;;;;32.70;39.46;94148.31;5155515;27;1055;-58
2023/07/26 07:25:10;;;;;;;;;;;;;;;32.92;39.74;94144.56;5136586;27;1898;-57
2023/07/26 07:27:36;;;;;;;;;;;;;;;33.08;38.54;94149.25;5155104;27;2398;-57
2023/07/26 07:30:02;;;;;;;;;;;;;;;33.29;37.79;94158.84;5129927;27;2774;-57
2023/07/26 07:32:28;;;;;;;;;;;;;;;33.33;38.74;94159.81;5134507;27;1067;-57
2023/07/26 07:34:54;;;;;;;;;;;;;;;33.22;37.96;94154.66;5134421;27;961;-57
2023/07/26 07:37:20;;;;;;;;;;;;;;;33.18;38.05;94147.31;5134500;27;1071;-57
2023/07/26 07:39:46;;;;;;;;;;;;;;;33.30;38.40;94166.84;5131023;28;2861;-58
2023/07/26 07:42:12;;;;;;;;;;;;;;;33.44;35.70;94156.38;5113873;28;1025;-57
2023/07/26 07:44:38;;;;;;;;;;;;;;;33.64;35.70;94176.25;5095666;28;1917;-57
2023/07/26 07:47:05;;;;;;;;;;;;;;;33.72;35.01;94178.16;5113995;28;1021;-57
2023/07/26 07:49:31;;;;;;;;;;;;;;;33.70;35.17;94163.03;5113595;28;1005;-57
2023/07/26 07:51:57;;;;;;;;;;;;;;;33.55;35.00;94162.38;5113757;28;1027;-58
2023/07/26 07:54:23;;;;;;;;;;;;;;;33.74;35.58;94162.00;5095417;28;1063;-58
2023/07/26 07:56:49;;;;;;;;;;;;;;;33.96;35.68;94180.34;5095933;28;1032;-58
2023/07/26 07:59:15;;;;;;;;;;;;;;;34.08;33.69;94167.75;5113542;28;1062;-58
2023/07/26 08:01:41;;;;;;;;;;;;;;;34.06;36.05;94179.16;5113558;28;1055;-58
2023/07/26 08:04:07;;;;;;;;;;;;;;;34.01;33.91;94182.91;5113565;28;1997;-58
2023/07/26 08:06:33;;;;;;;;;;;;;;;33.93;33.83;94189.31;5113458;28;1325;-58
2023/07/26 08:08:59;;;;;;;;;;;;;;;33.90;33.15;94178.09;5115730;27;2496;-58
2023/07/26 08:11:25;;;;;;;;;;;;;;;34.03;32.67;94188.97;5113765;28;1004;-58
2023/07/26 08:13:51;;;;;;;;;;;;;;;34.20;32.75;94182.53;5113434;28;1207;-58
2023/07/26 08:16:17;;;;;;;;;;;;;;;34.44;32.20;94191.41;5113567;28;1070;-59
2023/07/26 08:18:43;;;;;;;;;;;;;;;34.51;31.72;94183.34;5113831;28;2585;-58
2023/07/26 08:21:12;;;;;;;;;;;;;;;34.53;31.91;94198.50;5133534;28;2816;-58
2023/07/26 08:23:39;;;;;;;;;;;;;;;34.50;31.01;94185.31;5135037;27;1022;-56
2023/07/26 08:26:05;;;;;;;;;;;;;;;34.44;31.69;94183.06;5138017;27;1902;-57
2023/07/26 08:28:32;;;;;;;;;;;;;;;34.51;31.68;94180.56;5137670;27;1264;-58
2023/07/26 08:30:58;;;;;;;;;;;;;;;34.63;31.05;94188.16;5137906;27;1027;-57
2023/07/26 08:33:24;;;;;;;;;;;;;;;34.66;31.47;94185.53;5137703;27;1047;-57
2023/07/26 08:35:51;;;;;;;;;;;;;;;34.65;31.12;94183.91;5132466;27;2955;-57
2023/07/26 08:38:19;;;;;;;;;;;;;;;34.76;30.75;94182.38;5116864;28;1020;-56
2023/07/26 08:40:47;;;;;;;;;;;;;;;34.84;31.15;94194.56;5116886;28;1044;-57
2023/07/26 08:43:18;;;;;;;;;;;;;;;34.92;31.41;94190.09;5116762;28;1126;-56
2023/07/26 08:45:44;;;;;;;;;;;;;;;34.95;30.45;94193.00;5116715;28;1906;-57
2023/07/26 08:48:11;;;;;;;;;;;;;;;35.03;31.26;94202.41;5116708;28;1604;-57
2023/07/26 08:50:40;;;;;;;;;;;;;;;35.04;30.73;94184.63;5123426;27;2440;-57
2023/07/26 08:53:07;;;;;;;;;;;;;;;34.96;30.39;94189.06;5135553;27;3020;-58
2023/07/26 08:55:33;;;;;;;;;;;;;;;34.87;31.35;94181.97;5130087;27;3001;-57
2023/07/26 08:58:00;;;;;;;;;;;;;;;34.93;30.83;94188.94;5116603;28;1087;-57
2023/07/26 09:00:26;;;;;;;;;;;;;;;34.99;30.65;94190.38;5117044;27;2500;-57
2023/07/26 09:02:54;;;;;;;;;;;;;;;35.02;30.27;94183.31;5137109;27;1503;-57
2023/07/26 09:05:20;;;;;;;;;;;;;;;35.00;30.18;94189.19;5127638;27;2895;-57
2023/07/26 09:07:49;;;;;;;;;;;;;;;35.04;30.12;94197.66;5117188;27;2542;-58
2023/07/26 09:10:15;;;;;;;;;;;;;;;35.11;30.65;94193.19;5117078;27;2834;-57
2023/07/26 09:12:41;;;;;;;;;;;;;;;35.21;30.18;94196.72;5117768;27;2604;-57
2023/07/26 09:15:08;;;;;;;;;;;;;;;35.25;30.06;94197.66;5098501;28;973;-57
2023/07/26 09:17:38;;;;;;;;;;;;;;;35.25;30.04;94198.50;5116233;28;1027;-57
2023/07/26 09:20:07;;;;;;;;;;;;;;;35.37;30.12;94194.94;5116153;28;1074;-57
2023/07/26 09:22:33;;;;;;;;;;;;;;;35.36;29.82;94205.25;5116300;28;1068;-57
2023/07/26 09:24:59;;;;;;;;;;;;;;;35.40;30.01;94208.16;5116326;28;1905;-57
2023/07/26 09:27:26;;;;;;;;;;;;;;;35.52;29.72;94201.84;5116099;28;965;-57
2023/07/26 09:29:55;;;;;;;;;;;;;;;35.52;30.78;94201.84;5130691;27;1185;-57
2023/07/26 09:32:28;;;;;;;;;;;;;;;35.51;30.37;94201.00;5136452;27;1051;-57
2023/07/26 09:34:59;;;;;;;;;;;;;;;35.52;29.74;94201.84;5135792;27;1102;-57
2023/07/26 09:37:25;;;;;;;;;;;;;;;35.42;29.74;94200.31;5136371;27;1002;-57
2023/07/26 09:39:51;;;;;;;;;;;;;;;35.53;29.59;94201.47;5136520;27;975;-58
2023/07/26 09:42:17;;;;;;;;;;;;;;;35.64;30.45;94206.63;5136192;27;1091;-58
2023/07/26 09:44:45;;;;;;;;;;;;;;;35.66;29.99;94202.31;5120382;27;2564;-58
2023/07/26 09:47:11;;;;;;;;;;;;;;;35.71;29.80;94204.13;5116603;27;2870;-58
2023/07/26 09:49:48;;;;;;;;;;;;;;;35.67;30.65;94192.84;5115644;28;1035;-57
2023/07/26 09:52:16;;;;;;;;;;;;;;;35.80;30.75;94193.72;5117036;27;2506;-57
2023/07/26 09:54:44;;;;;;;;;;;;;;;35.86;30.93;94197.09;5115854;28;957;-58
2023/07/26 09:57:10;;;;;;;;;;;;;;;35.70;30.66;94192.16;5116840;27;2913;-57
2023/07/26 09:59:36;;;;;;;;;;;;;;;35.67;30.85;94195.63;5115504;28;1000;-57
2023/07/26 10:02:04;;;;;;;;;;;;;;;35.76;30.93;94199.16;5115334;28;1032;-57
2023/07/26 10:04:30;;;;;;;;;;;;;;;35.69;31.15;94195.31;5115182;28;1902;-57
2023/07/26 10:06:58;;;;;;;;;;;;;;;35.74;32.00;94193.13;5115264;28;1043;-57
2023/07/26 10:09:27;;;;;;;;;;;;;;;35.84;30.47;94197.44;5115316;28;949;-57
2023/07/26 10:11:54;;;;;;;;;;;;;;;35.84;31.03;94191.03;5115335;28;953;-57
2023/07/26 10:14:20;;;;;;;;;;;;;;;35.89;31.96;94185.25;5114905;28;1250;-57
2023/07/26 10:16:49;;;;;;;;;;;;;;;35.85;30.65;94187.91;5115102;28;1083;-57
2023/07/26 10:19:15;;;;;;;;;;;;;;;35.80;31.18;94178.97;5115161;28;1051;-57
2023/07/26 10:21:42;;;;;;;;;;;;;;;35.72;31.26;94177.94;5115074;28;1065;-57
2023/07/26 10:24:09;;;;;;;;;;;;;;;35.75;31.28;94172.50;5114899;28;1904;-57
2023/07/26 10:26:36;;;;;;;;;;;;;;;35.81;30.58;94169.50;5115236;28;977;-57
2023/07/26 10:29:02;;;;;;;;;;;;;;;35.75;31.52;94163.34;5124275;27;2566;-57
2023/07/26 10:31:29;;;;;;;;;;;;;;;35.84;31.38;94169.63;5135475;27;1254;-57
2023/07/26 10:33:55;;;;;;;;;;;;;;;35.86;33.44;94145.06;5135528;27;984;-57
2023/07/26 10:36:27;;;;;;;;;;;;;;;35.76;31.52;94151.88;5122149;27;2870;-57
2023/07/26 10:38:53;;;;;;;;;;;;;;;35.90;30.44;94154.31;5114782;28;1047;-57
2023/07/26 10:41:26;;;;;;;;;;;;;;;36.04;29.42;94156.75;5114522;28;1044;-57
2023/07/26 10:44:01;;;;;;;;;;;;;;;35.94;30.64;94155.25;5114826;28;977;-57
2023/07/26 10:46:27;;;;;;;;;;;;;;;35.87;31.98;94141.09;5114399;28;1099;-57
2023/07/26 10:48:54;;;;;;;;;;;;;;;36.03;31.44;94140.41;5114781;28;995;-57
2023/07/26 10:51:25;;;;;;;;;;;;;;;35.84;31.06;94136.25;5114597;28;995;-57
2023/07/26 10:53:53;;;;;;;;;;;;;;;35.85;31.39;94143.41;5114362;28;1036;-57
2023/07/26 10:56:22;;;;;;;;;;;;;;;36.02;31.06;94133.25;5114209;28;1008;-57
2023/07/26 10:59:03;;;;;;;;;;;;;;;35.97;31.14;94128.72;5114252;28;1204;-57
2023/07/26 11:01:32;;;;;;;;;;;;;;;35.87;31.60;94129.97;5114112;28;1020;-57
2023/07/26 11:03:58;;;;;;;;;;;;;;;35.50;31.97;94121.59;5114428;28;1909;-55
2023/07/26 11:06:43;;;;;;;;;;;;;;;35.29;32.10;94116.09;5113993;28;1036;-56
2023/07/26 11:09:25;;;;;;;;;;;;;;;35.42;32.15;94108.59;5114341;28;957;-56
2023/07/26 11:11:52;;;;;;;;;;;;;;;35.80;31.67;94115.03;5114244;28;1035;-57
2023/07/26 11:14:18;;;;;;;;;;;;;;;35.74;31.85;94114.44;5113840;28;1247;-58
2023/07/26 11:16:45;;;;;;;;;;;;;;;35.71;32.34;94102.06;5114008;28;1150;-57
2023/07/26 11:19:11;;;;;;;;;;;;;;;35.86;31.51;94120.03;5113819;28;1039;-57
2023/07/26 11:21:38;;;;;;;;;;;;;;;35.96;31.51;94110.41;5114229;28;979;-58
2023/07/26 11:24:04;;;;;;;;;;;;;;;36.11;30.52;94106.13;5113844;28;1913;-57
2023/07/26 11:26:30;;;;;;;;;;;;;;;36.10;30.28;94115.63;5115371;27;2447;-57
2023/07/26 11:28:59;;;;;;;;;;;;;;;36.09;31.87;94114.00;5120631;27;1225;-57
2023/07/26 11:31:25;;;;;;;;;;;;;;;36.01;30.60;94112.97;5122589;27;2715;-57
2023/07/26 11:33:51;;;;;;;;;;;;;;;35.71;31.59;94102.06;5115212;28;2485;-56
2023/07/26 11:36:20;;;;;;;;;;;;;;;35.67;32.15;94103.09;5113959;28;1029;-57
2023/07/26 11:38:48;;;;;;;;;;;;;;;35.66;31.70;94099.47;5110675;28;2574;-57
2023/07/26 11:41:20;;;;;;;;;;;;;;;35.75;31.76;94096.63;5134279;28;969;-57
2023/07/26 11:43:46;;;;;;;;;;;;;;;35.80;32.55;94093.63;5134207;28;864;-57
2023/07/26 11:46:12;;;;;;;;;;;;;;;35.92;31.21;94087.25;5114869;28;2637;-57
2023/07/26 11:48:43;;;;;;;;;;;;;;;35.90;32.56;94079.25;5114167;28;1044;-57
2023/07/26 11:54:30;;;;;;;;;;;;;;;35.94;32.49;94082.94;5114974;28;2486;-58
2023/07/26 11:56:58;;;;;;;;;;;;;;;36.03;32.01;94085.63;5113530;28;1064;-57
2023/07/26 11:59:24;;;;;;;;;;;;;;;36.13;31.02;94084.31;5110303;28;2487;-58
2023/07/26 12:01:50;;;;;;;;;;;;;;;36.18;31.20;94086.06;5129600;27;2909;-57
2023/07/26 12:04:17;;;;;;;;;;;;;;;36.20;30.20;94090.16;5138214;27;1913;-57
2023/07/26 12:06:44;;;;;;;;;;;;;;;36.13;30.89;94078.75;5138434;27;1007;-57
2023/07/26 12:09:10;;;;;;;;;;;;;;;36.19;29.97;94082.94;5138286;27;1048;-57
2023/07/26 12:11:50;;;;;;;;;;;;;;;36.13;30.22;94084.31;5118494;27;2518;-57
2023/07/26 12:14:16;;;;;;;;;;;;;;;35.74;30.20;94092.22;5116407;28;2466;-57
2023/07/26 12:16:49;;;;;;;;;;;;;;;35.73;29.33;94090.59;5117746;28;1002;-57
2023/07/26 12:19:18;;;;;;;;;;;;;;;35.69;29.92;94084.91;5117225;28;1071;-57
2023/07/26 12:21:46;;;;;;;;;;;;;;;35.85;30.04;94065.56;5117646;28;1033;-57
2023/07/26 12:24:12;;;;;;;;;;;;;;;35.81;31.00;94061.06;5117150;28;1894;-58
2023/07/26 12:26:40;;;;;;;;;;;;;;;35.51;31.12;94055.69;5117194;28;1118;-57
2023/07/26 12:29:06;;;;;;;;;;;;;;;35.61;31.14;94049.69;5125812;27;1299;-56
2023/07/26 12:31:33;;;;;;;;;;;;;;;35.73;30.78;94046.13;5133803;27;2153;-57
2023/07/26 12:34:00;;;;;;;;;;;;;;;35.77;30.01;94053.41;5135329;27;2829;-56
2023/07/26 12:36:31;;;;;;;;;;;;;;;35.63;29.68;94049.31;5137804;27;965;-57
2023/07/26 12:38:57;;;;;;;;;;;;;;;35.38;31.14;94030.69;5137728;27;1265;-56
2023/07/26 12:41:23;;;;;;;;;;;;;;;35.54;30.50;94047.47;5137505;27;1048;-57
2023/07/26 12:43:53;;;;;;;;;;;;;;;35.72;30.41;94039.75;5137627;27;972;-57
2023/07/26 12:46:19;;;;;;;;;;;;;;;35.62;30.35;94033.81;5137215;27;1897;-56
2023/07/26 12:48:45;;;;;;;;;;;;;;;35.51;30.84;94036.22;5137359;27;983;-57
2023/07/26 12:51:11;;;;;;;;;;;;;;;35.37;31.60;94028.25;5126575;27;2486;-56
2023/07/26 12:53:37;;;;;;;;;;;;;;;35.33;31.33;94027.31;5116959;28;1039;-57
2023/07/26 12:56:03;;;;;;;;;;;;;;;35.10;31.81;94024.13;5117867;27;2492;-57
2023/07/26 12:58:29;;;;;;;;;;;;;;;35.00;32.13;94025.38;5116842;28;1269;-57